createdAt,value
2022-08-25T00:02:14.997Z,5.40
2022-08-25T00:04:43.537Z,5.35
2022-08-25T00:07:12.105Z,5.65
2022-08-25T00:09:42.657Z,5.32
2022-08-25T00:12:09.500Z,6.00
2022-08-25T00:14:37.428Z,5.68
2022-08-25T00:17:05.775Z,7.38
2022-08-25T00:19:34.940Z,12.07
2022-08-25T00:22:03.330Z,6.65
2022-08-25T00:24:30.212Z,6.27
2022-08-25T00:26:58.861Z,6.00
2022-08-25T00:29:26.999Z,5.75
2022-08-25T00:31:55.782Z,6.15
2022-08-25T00:34:27.914Z,6.10
2022-08-25T00:36:54.756Z,6.00
2022-08-25T00:39:23.488Z,5.95
2022-08-25T00:41:53.922Z,5.90
2022-08-25T00:44:21.088Z,5.93
2022-08-25T00:46:51.176Z,6.20
2022-08-25T00:49:25.409Z,6.27
2022-08-25T00:52:18.396Z,6.60
2022-08-25T00:54:51.207Z,6.72
2022-08-25T00:57:34.107Z,6.03
2022-08-25T01:00:07.425Z,5.72
2022-08-25T01:02:34.181Z,5.80
2022-08-25T01:05:00.951Z,6.20
2022-08-25T01:07:27.759Z,6.13
2022-08-25T01:09:55.461Z,5.68
2022-08-25T01:12:22.574Z,5.68
2022-08-25T01:14:50.974Z,5.40
2022-08-25T01:17:17.982Z,4.97
2022-08-25T01:19:44.750Z,5.22
2022-08-25T01:22:12.357Z,5.30
2022-08-25T01:24:53.563Z,5.80
2022-08-25T01:27:20.536Z,5.73
2022-08-25T01:29:47.195Z,5.90
2022-08-25T01:32:14.903Z,5.70
2022-08-25T01:34:44.445Z,5.50
2022-08-25T01:37:13.953Z,5.60
2022-08-25T01:39:41.999Z,5.70
2022-08-25T01:42:28.200Z,5.07
2022-08-25T01:44:55.140Z,5.50
2022-08-25T01:47:21.884Z,5.00
2022-08-25T01:49:48.607Z,5.13
2022-08-25T01:52:16.865Z,5.43
2022-08-25T01:54:43.674Z,5.07
2022-08-25T01:57:10.746Z,5.38
2022-08-25T01:59:37.745Z,5.13
2022-08-25T02:02:05.657Z,5.10
2022-08-25T02:04:32.944Z,4.73
2022-08-25T02:07:01.955Z,5.15
2022-08-25T02:09:28.886Z,5.60
2022-08-25T02:11:56.856Z,5.00
2022-08-25T02:14:23.832Z,4.57
2022-08-25T02:16:53.109Z,5.30
2022-08-25T02:19:21.405Z,5.30
2022-08-25T02:21:48.537Z,5.03
2022-08-25T02:24:15.562Z,5.20
2022-08-25T02:26:43.165Z,4.78
2022-08-25T02:29:10.628Z,5.30
2022-08-25T02:31:37.992Z,5.60
2022-08-25T02:34:05.633Z,5.72
2022-08-25T02:36:33.036Z,5.55
2022-08-25T02:39:00.801Z,5.72
2022-08-25T02:41:31.161Z,6.27
2022-08-25T02:43:59.926Z,5.90
2022-08-25T02:46:26.824Z,7.10
2022-08-25T02:48:53.653Z,5.93
2022-08-25T02:51:22.534Z,6.10
2022-08-25T02:53:49.823Z,6.10
2022-08-25T02:56:18.326Z,5.68
2022-08-25T02:58:45.970Z,5.65
2022-08-25T03:01:13.229Z,5.65
2022-08-25T03:03:41.421Z,5.95
2022-08-25T03:06:12.581Z,5.43
2022-08-25T03:08:40.266Z,5.95
2022-08-25T03:11:07.073Z,5.20
2022-08-25T03:13:34.441Z,5.47
2022-08-25T03:16:03.119Z,5.53
2022-08-25T03:18:30.624Z,5.57
2022-08-25T03:20:58.217Z,5.10
2022-08-25T03:23:25.154Z,5.85
2022-08-25T03:26:13.600Z,5.90
2022-08-25T03:28:41.696Z,5.68
2022-08-25T03:31:09.427Z,5.87
2022-08-25T03:33:36.448Z,5.93
2022-08-25T03:36:03.453Z,5.78
2022-08-25T03:38:30.146Z,6.70
2022-08-25T03:40:57.049Z,6.38
2022-08-25T03:43:23.900Z,5.70
2022-08-25T03:45:50.659Z,5.88
2022-08-25T03:48:17.667Z,6.05
2022-08-25T03:50:51.144Z,5.70
2022-08-25T03:53:19.872Z,5.78
2022-08-25T03:55:47.267Z,5.97
2022-08-25T03:58:14.425Z,5.53
2022-08-25T04:00:42.165Z,5.53
2022-08-25T04:03:09.076Z,5.90
2022-08-25T04:05:35.808Z,5.45
2022-08-25T04:08:02.760Z,6.60
2022-08-25T04:10:29.851Z,6.32
2022-08-25T04:12:57.231Z,5.60
2022-08-25T04:15:27.157Z,6.10
2022-08-25T04:17:59.078Z,6.20
2022-08-25T04:20:26.080Z,5.77
2022-08-25T04:22:52.773Z,6.30
2022-08-25T04:25:19.516Z,6.50
2022-08-25T04:27:46.243Z,6.10
2022-08-25T04:30:13.491Z,6.63
2022-08-25T04:32:40.164Z,6.20
2022-08-25T04:35:07.559Z,6.30
2022-08-25T04:37:34.882Z,6.10
2022-08-25T04:40:02.163Z,6.20
2022-08-25T04:42:28.913Z,6.18
2022-08-25T04:44:55.839Z,5.70
2022-08-25T04:47:23.169Z,5.85
2022-08-25T04:49:49.898Z,6.55
2022-08-25T04:52:16.678Z,6.57
2022-08-25T04:54:43.814Z,6.50
2022-08-25T04:57:10.960Z,6.83
2022-08-25T04:59:37.949Z,7.35
2022-08-25T05:02:06.549Z,6.82
2022-08-25T05:04:36.010Z,7.25
2022-08-25T05:07:03.845Z,7.68
2022-08-25T05:09:32.392Z,8.33
2022-08-25T05:12:01.103Z,7.75
2022-08-25T05:14:28.887Z,7.05
2022-08-25T05:16:57.284Z,6.60
2022-08-25T05:19:24.683Z,7.05
2022-08-25T05:21:52.111Z,7.27
2022-08-25T05:24:19.708Z,6.90
2022-08-25T05:26:46.719Z,8.02
2022-08-25T05:29:14.377Z,7.40
2022-08-25T05:31:47.077Z,6.80
2022-08-25T05:34:18.324Z,6.97
2022-08-25T05:36:45.049Z,7.20
2022-08-25T05:39:12.782Z,7.47
2022-08-25T05:41:39.596Z,8.10
2022-08-25T05:44:06.540Z,8.82
2022-08-25T05:46:33.585Z,7.80
2022-08-25T05:49:00.779Z,7.35
2022-08-25T05:51:27.652Z,7.05
2022-08-25T05:53:54.513Z,7.80
2022-08-25T05:56:21.532Z,7.35
2022-08-25T05:58:48.984Z,7.53
2022-08-25T06:01:47.739Z,7.40
2022-08-25T06:04:18.032Z,7.20
2022-08-25T06:06:44.831Z,7.13
2022-08-25T06:09:11.664Z,7.43
2022-08-25T06:11:39.877Z,7.30
2022-08-25T06:14:10.228Z,7.43
2022-08-25T06:16:38.907Z,8.02
2022-08-25T06:19:07.353Z,7.40
2022-08-25T06:21:34.101Z,7.50
2022-08-25T06:24:02.107Z,6.97
2022-08-25T06:26:28.820Z,7.50
2022-08-25T06:28:55.473Z,7.53
2022-08-25T06:31:22.783Z,7.00
2022-08-25T06:33:50.310Z,5.82
2022-08-25T06:36:17.715Z,5.30
2022-08-25T06:38:44.604Z,5.22
2022-08-25T06:41:12.498Z,5.22
2022-08-25T06:43:45.020Z,5.75
2022-08-25T06:46:18.858Z,5.90
2022-08-25T06:48:45.616Z,5.60
2022-08-25T06:51:14.946Z,5.30
2022-08-25T06:53:42.887Z,4.68
2022-08-25T06:56:10.147Z,4.30
2022-08-25T06:58:38.071Z,6.20
2022-08-25T07:01:20.120Z,4.60
2022-08-25T07:03:48.346Z,4.90
2022-08-25T07:06:17.230Z,4.10
2022-08-25T07:08:46.667Z,4.43
2022-08-25T07:11:16.445Z,4.60
2022-08-25T07:13:45.142Z,4.70
2022-08-25T07:16:12.249Z,4.55
2022-08-25T07:18:39.142Z,4.45
2022-08-25T07:21:08.816Z,4.13
2022-08-25T07:23:36.721Z,4.25
2022-08-25T07:29:13.364Z,4.20
2022-08-25T07:31:40.630Z,4.50
2022-08-25T07:34:27.357Z,3.40
2022-08-25T07:36:56.951Z,3.72
2022-08-25T07:39:24.803Z,2.93
2022-08-25T07:41:52.640Z,4.38
2022-08-25T07:44:21.044Z,2.80
2022-08-25T07:46:48.631Z,2.70
2022-08-25T07:52:06.809Z,3.10
2022-08-25T07:54:37.812Z,2.50
2022-08-25T07:57:07.354Z,3.10
2022-08-25T07:59:39.261Z,2.45
2022-08-25T08:02:18.508Z,2.17
2022-08-25T08:04:52.301Z,2.70
2022-08-25T08:07:22.823Z,2.60
2022-08-25T08:09:56.177Z,2.90
2022-08-25T08:12:33.988Z,2.97
2022-08-25T08:15:00.932Z,2.90
2022-08-25T08:17:27.573Z,2.80
2022-08-25T08:19:54.433Z,2.88
2022-08-25T08:22:21.155Z,3.30
2022-08-25T08:24:54.132Z,3.50
2022-08-25T08:27:22.947Z,3.42
2022-08-25T08:29:50.140Z,3.07
2022-08-25T08:32:18.579Z,3.40
2022-08-25T08:34:47.042Z,3.40
2022-08-25T08:37:18.420Z,4.30
2022-08-25T08:39:47.057Z,3.78
2022-08-25T08:42:38.492Z,4.13
2022-08-25T08:45:11.465Z,4.38
2022-08-25T08:48:11.039Z,4.10
2022-08-25T08:50:59.587Z,4.05
2022-08-25T08:53:54.394Z,4.38
2022-08-25T08:56:30.835Z,3.57
2022-08-25T08:59:14.189Z,4.25
2022-08-25T09:01:57.442Z,4.28
2022-08-25T09:04:35.079Z,4.00
2022-08-25T09:07:10.577Z,3.92
2022-08-25T09:09:40.165Z,3.80
2022-08-25T09:12:29.060Z,4.00
2022-08-25T09:15:13.850Z,4.07
2022-08-25T09:17:58.958Z,3.40
2022-08-25T09:20:45.260Z,4.15
2022-08-25T09:23:25.063Z,3.50
2022-08-25T09:26:15.965Z,4.15
2022-08-25T09:28:52.341Z,3.80
2022-08-25T09:31:31.789Z,3.70
2022-08-25T09:34:01.626Z,4.00
2022-08-25T09:36:30.704Z,3.50
2022-08-25T09:39:00.285Z,3.60
2022-08-25T09:41:47.196Z,3.70
2022-08-25T09:44:21.859Z,3.80
2022-08-25T09:47:01.952Z,4.00
2022-08-25T09:49:39.204Z,4.10
2022-08-25T09:52:21.151Z,4.00
2022-08-25T09:54:50.241Z,4.18
2022-08-25T09:57:34.039Z,3.60
2022-08-25T10:00:15.717Z,3.63
2022-08-25T10:02:44.436Z,3.33
2022-08-25T10:05:47.990Z,3.30
2022-08-25T10:08:31.522Z,3.30
2022-08-25T10:11:01.425Z,3.40
2022-08-25T10:13:44.321Z,3.25
2022-08-25T10:16:25.303Z,3.10
2022-08-25T10:19:01.136Z,3.08
2022-08-25T10:21:28.271Z,3.30
2022-08-25T10:23:56.361Z,3.20
2022-08-25T10:26:51.463Z,3.30
2022-08-25T10:29:35.052Z,3.30
2022-08-25T10:32:23.297Z,3.50
2022-08-25T10:34:55.997Z,3.45
2022-08-25T10:37:34.977Z,3.20
2022-08-25T10:40:16.678Z,3.15
2022-08-25T10:43:07.906Z,3.10
2022-08-25T10:45:45.730Z,3.40
2022-08-25T10:48:22.209Z,3.60
2022-08-25T10:50:59.075Z,3.22
2022-08-25T10:53:44.213Z,3.17
2022-08-25T10:56:41.725Z,3.30
2022-08-25T10:59:20.461Z,3.35
2022-08-25T11:02:19.884Z,3.20
2022-08-25T11:04:59.479Z,3.25
2022-08-25T11:07:31.423Z,2.92
2022-08-25T11:10:05.989Z,3.23
2022-08-25T11:12:39.131Z,3.42
2022-08-25T11:15:12.705Z,3.20
2022-08-25T11:18:01.205Z,3.40
2022-08-25T11:20:37.551Z,3.10
2022-08-25T11:23:11.895Z,3.53
2022-08-25T11:25:43.696Z,3.10
2022-08-25T11:28:26.669Z,3.10
2022-08-25T11:30:57.727Z,3.03
2022-08-25T11:33:26.612Z,3.28
2022-08-25T11:36:02.691Z,3.40
2022-08-25T11:38:50.448Z,3.40
2022-08-25T11:41:29.314Z,2.95
2022-08-25T11:44:04.906Z,3.03
2022-08-25T11:46:51.774Z,3.13
2022-08-25T11:49:43.170Z,3.47
2022-08-25T11:52:38.461Z,3.10
2022-08-25T11:55:36.687Z,3.65
2022-08-25T11:58:34.301Z,3.40
2022-08-25T12:01:02.564Z,3.50
2022-08-25T12:03:32.302Z,4.00
2022-08-25T12:06:29.081Z,3.50
2022-08-25T12:09:05.444Z,3.58
2022-08-25T12:11:37.945Z,3.88
2022-08-25T12:14:15.027Z,3.63
2022-08-25T12:17:03.519Z,3.90
2022-08-25T12:19:36.283Z,3.80
2022-08-25T12:22:03.693Z,3.80
2022-08-25T12:24:33.264Z,4.20
2022-08-25T12:27:06.227Z,4.72
2022-08-25T12:29:42.225Z,4.50
2022-08-25T12:32:30.917Z,3.95
2022-08-25T12:35:37.376Z,3.90
2022-08-25T12:38:13.890Z,3.75
2022-08-25T12:40:43.938Z,3.90
2022-08-25T12:43:27.655Z,3.97
2022-08-25T12:46:19.218Z,3.60
2022-08-25T12:49:11.845Z,3.70
2022-08-25T12:51:50.726Z,4.00
2022-08-25T12:54:35.822Z,3.80
2022-08-25T12:57:17.812Z,3.90
2022-08-25T12:59:56.290Z,3.60
2022-08-25T13:02:51.758Z,3.97
2022-08-25T13:05:42.936Z,3.60
2022-08-25T13:08:18.768Z,3.70
2022-08-25T13:10:55.865Z,4.07
2022-08-25T13:13:49.078Z,3.90
2022-08-25T13:16:20.339Z,3.70
2022-08-25T13:18:51.415Z,3.92
2022-08-25T13:21:23.184Z,4.03
2022-08-25T13:23:54.119Z,3.63
2022-08-25T13:26:34.254Z,4.00
2022-08-25T13:29:14.409Z,3.90
2022-08-25T13:32:14.407Z,3.78
2022-08-25T13:37:29.560Z,4.27
2022-08-25T13:40:11.871Z,4.30
2022-08-25T13:42:54.417Z,3.92
2022-08-25T13:45:26.690Z,3.80
2022-08-25T13:47:55.830Z,3.90
2022-08-25T13:50:32.808Z,3.80
2022-08-25T13:53:02.584Z,3.78
2022-08-25T13:55:50.663Z,3.70
2022-08-25T13:58:38.898Z,3.95
2022-08-25T14:01:49.641Z,3.80
2022-08-25T14:04:32.309Z,3.63
2022-08-25T14:07:27.200Z,3.95
2022-08-25T14:10:10.420Z,3.78
2022-08-25T14:12:45.414Z,4.03
2022-08-25T14:15:17.935Z,4.00
2022-08-25T14:17:49.378Z,3.70
2022-08-25T14:20:31.082Z,3.70
2022-08-25T14:23:09.997Z,3.63
2022-08-25T14:25:37.431Z,3.70
2022-08-25T14:28:16.028Z,3.88
2022-08-25T14:30:49.450Z,3.70
2022-08-25T14:33:21.825Z,4.05
2022-08-25T14:35:53.770Z,3.50
2022-08-25T14:38:22.212Z,3.70
2022-08-25T14:40:50.414Z,3.75
2022-08-25T14:43:17.794Z,3.63
2022-08-25T14:45:49.058Z,3.47
2022-08-25T14:48:35.064Z,3.30
2022-08-25T14:51:03.749Z,3.42
2022-08-25T14:53:30.761Z,3.50
2022-08-25T14:55:58.820Z,3.50
2022-08-25T14:58:26.899Z,3.50
2022-08-25T15:00:54.049Z,3.78
2022-08-25T15:03:33.500Z,3.47
2022-08-25T15:06:00.653Z,3.50
2022-08-25T15:08:46.998Z,3.43
2022-08-25T15:11:14.925Z,3.80
2022-08-25T15:13:43.837Z,3.50
2022-08-25T15:16:36.353Z,3.15
2022-08-25T15:19:07.147Z,3.63
2022-08-25T15:21:35.994Z,3.60
2022-08-25T15:24:04.539Z,3.50
2022-08-25T15:26:46.267Z,4.15
2022-08-25T15:29:13.096Z,3.30
2022-08-25T15:31:39.987Z,3.28
2022-08-25T15:34:11.833Z,3.73
2022-08-25T15:36:39.058Z,4.00
2022-08-25T15:39:06.691Z,4.07
2022-08-25T15:41:34.082Z,4.18
2022-08-25T15:44:04.870Z,4.00
2022-08-25T15:46:33.468Z,3.70
2022-08-25T15:49:00.225Z,3.80
2022-08-25T15:51:28.657Z,4.00
2022-08-25T15:53:56.021Z,4.70
2022-08-25T15:56:26.724Z,4.60
2022-08-25T15:58:55.526Z,4.60
2022-08-25T16:01:25.469Z,4.28
2022-08-25T16:03:52.979Z,4.40
2022-08-25T16:06:20.292Z,4.75
2022-08-25T16:08:47.588Z,4.60
2022-08-25T16:11:22.813Z,4.63
2022-08-25T16:13:50.597Z,4.70
2022-08-25T16:16:18.657Z,4.72
2022-08-25T16:18:46.169Z,4.60
2022-08-25T16:21:15.885Z,4.70
2022-08-25T16:23:43.146Z,4.57
2022-08-25T16:26:11.020Z,4.70
2022-08-25T16:28:43.778Z,4.45
2022-08-25T16:31:13.273Z,4.63
2022-08-25T16:36:14.752Z,5.10
2022-08-25T16:38:42.558Z,4.97
2022-08-25T16:41:24.832Z,4.82
2022-08-25T16:43:52.330Z,4.55
2022-08-25T16:46:21.442Z,4.50
2022-08-25T16:48:50.592Z,4.90
2022-08-25T16:51:22.741Z,4.80
2022-08-25T16:54:10.921Z,5.22
2022-08-25T16:56:39.034Z,5.75
2022-08-25T16:59:07.307Z,6.63
2022-08-25T17:01:35.417Z,8.33
2022-08-25T17:04:03.100Z,10.10
2022-08-25T17:06:33.599Z,9.43
2022-08-25T17:09:00.453Z,6.65
2022-08-25T17:11:30.530Z,5.68
2022-08-25T17:14:00.618Z,5.23
2022-08-25T17:16:31.369Z,5.00
2022-08-25T17:19:05.603Z,5.00
2022-08-25T17:21:36.398Z,4.78
2022-08-25T17:24:04.795Z,4.95
2022-08-25T17:26:31.867Z,4.93
2022-08-25T17:29:01.292Z,32.80
2022-08-25T17:31:29.976Z,8.00
2022-08-25T17:33:57.617Z,5.90
2022-08-25T17:36:26.900Z,5.25
2022-08-25T17:38:56.975Z,5.07
2022-08-25T17:41:24.258Z,5.18
2022-08-25T17:43:50.965Z,5.90
2022-08-25T17:46:18.176Z,5.10
2022-08-25T17:48:45.141Z,5.22
2022-08-25T17:51:12.743Z,5.53
2022-08-25T17:53:43.713Z,5.20
2022-08-25T17:56:17.647Z,5.10
2022-08-25T17:58:47.154Z,5.10
2022-08-25T18:01:26.305Z,4.80
2022-08-25T18:03:53.711Z,5.07
2022-08-25T18:06:21.709Z,4.90
2022-08-25T18:08:51.778Z,5.80
2022-08-25T18:11:23.595Z,5.97
2022-08-25T18:13:53.708Z,5.45
2022-08-25T18:16:21.358Z,5.43
2022-08-25T18:18:48.566Z,5.40
2022-08-25T18:21:21.513Z,5.90
2022-08-25T18:23:49.566Z,5.60
2022-08-25T18:26:16.546Z,5.72
2022-08-25T18:28:43.849Z,5.13
2022-08-25T18:31:13.151Z,6.10
2022-08-25T18:33:44.415Z,6.00
2022-08-25T18:36:12.379Z,5.38
2022-08-25T18:38:59.101Z,5.45
2022-08-25T18:41:27.816Z,6.10
2022-08-25T18:43:54.601Z,7.07
2022-08-25T18:46:22.765Z,6.80
2022-08-25T18:48:52.993Z,6.07
2022-08-25T18:51:22.965Z,6.18
2022-08-25T18:53:51.241Z,5.90
2022-08-25T18:56:22.455Z,5.80
2022-08-25T18:58:49.211Z,5.78
2022-08-25T19:01:18.316Z,5.70
2022-08-25T19:03:45.796Z,5.75
2022-08-25T19:06:12.530Z,5.93
2022-08-25T19:08:41.761Z,5.68
2022-08-25T19:11:09.896Z,5.72
2022-08-25T19:13:38.090Z,5.80
2022-08-25T19:16:10.393Z,6.22
2022-08-25T19:18:38.962Z,5.60
2022-08-25T19:21:06.375Z,6.22
2022-08-25T19:23:33.392Z,5.82
2022-08-25T19:26:00.389Z,5.40
2022-08-25T19:28:27.151Z,5.65
2022-08-25T19:30:54.179Z,5.90
2022-08-25T19:33:31.394Z,5.57
2022-08-25T19:36:09.019Z,5.88
2022-08-25T19:38:36.938Z,5.97
2022-08-25T19:41:13.856Z,6.30
2022-08-25T19:43:55.226Z,6.00
2022-08-25T19:46:26.076Z,6.47
2022-08-25T19:49:06.865Z,6.20
2022-08-25T19:51:39.452Z,6.20
2022-08-25T19:54:09.180Z,6.50
2022-08-25T19:56:43.610Z,6.33
2022-08-25T19:59:25.812Z,6.70
2022-08-25T20:01:53.575Z,7.05
2022-08-25T20:04:21.074Z,7.35
2022-08-25T20:06:51.410Z,7.10
2022-08-25T20:09:21.124Z,7.03
2022-08-25T20:12:06.440Z,6.90
2022-08-25T20:14:33.938Z,6.95
2022-08-25T20:17:01.760Z,6.80
2022-08-25T20:19:31.116Z,7.20
2022-08-25T20:21:58.878Z,6.90
2022-08-25T20:24:43.991Z,6.72
2022-08-25T20:27:11.956Z,6.10
2022-08-25T20:29:38.935Z,5.90
2022-08-25T20:32:05.913Z,5.88
2022-08-25T20:34:34.054Z,5.80
2022-08-25T20:37:00.920Z,5.85
2022-08-25T20:39:27.651Z,5.97
2022-08-25T20:41:54.517Z,6.57
2022-08-25T20:44:23.327Z,6.32
2022-08-25T20:46:51.618Z,6.57
2022-08-25T20:49:21.481Z,7.00
2022-08-25T20:51:48.164Z,6.88
2022-08-25T20:54:18.401Z,7.00
2022-08-25T20:56:45.040Z,6.93
2022-08-25T20:59:11.840Z,6.40
2022-08-25T21:01:39.993Z,6.20
2022-08-25T21:04:10.742Z,5.95
2022-08-25T21:06:42.221Z,6.45
2022-08-25T21:09:15.883Z,7.38
2022-08-25T21:11:44.269Z,6.83
2022-08-25T21:14:13.158Z,7.40
2022-08-25T21:16:41.546Z,7.47
2022-08-25T21:19:08.883Z,7.68
2022-08-25T21:21:38.613Z,7.20
2022-08-25T21:24:09.713Z,7.00
2022-08-25T21:26:37.507Z,6.85
2022-08-25T21:29:15.260Z,6.55
2022-08-25T21:31:42.527Z,6.68
2022-08-25T21:34:11.063Z,6.88
2022-08-25T21:36:38.753Z,6.80
2022-08-25T21:39:05.748Z,6.90
2022-08-25T21:41:34.506Z,6.80
2022-08-25T21:44:01.843Z,6.32
2022-08-25T21:46:31.005Z,6.60
2022-08-25T21:49:00.010Z,6.90
2022-08-25T21:51:33.208Z,6.70
2022-08-25T21:54:11.466Z,6.30
2022-08-25T21:57:02.093Z,6.72
2022-08-25T21:59:32.037Z,7.00
2022-08-25T22:02:01.937Z,6.90
2022-08-25T22:04:29.524Z,6.97
2022-08-25T22:06:58.065Z,6.80
2022-08-25T22:09:25.567Z,6.68
2022-08-25T22:11:53.209Z,7.40
2022-08-25T22:14:23.436Z,7.07
2022-08-25T22:16:51.892Z,6.60
2022-08-25T22:19:18.841Z,7.15
2022-08-25T22:21:45.550Z,6.65
2022-08-25T22:24:12.527Z,6.47
2022-08-25T22:26:39.798Z,6.63
2022-08-25T22:29:07.589Z,7.05
2022-08-25T22:31:35.625Z,6.97
2022-08-25T22:34:02.994Z,6.60
2022-08-25T22:36:33.689Z,6.75
2022-08-25T22:39:01.372Z,6.33
2022-08-25T22:41:29.872Z,6.63
2022-08-25T22:43:57.591Z,7.00
2022-08-25T22:46:30.055Z,7.07
2022-08-25T22:48:57.460Z,7.18
2022-08-25T22:51:27.620Z,6.80
2022-08-25T22:53:54.801Z,6.55
2022-08-25T22:56:32.218Z,6.97
2022-08-25T22:59:01.356Z,6.60
2022-08-25T23:01:28.216Z,6.95
2022-08-25T23:03:55.374Z,7.03
2022-08-25T23:06:24.949Z,7.47
2022-08-25T23:08:53.714Z,7.35
2022-08-25T23:11:22.294Z,6.78
2022-08-25T23:13:49.803Z,6.70
2022-08-25T23:16:17.810Z,7.30
2022-08-25T23:18:45.038Z,6.68
2022-08-25T23:21:37.987Z,7.13
2022-08-25T23:24:08.846Z,6.93
2022-08-25T23:26:37.825Z,6.80
2022-08-25T23:29:18.757Z,6.53
2022-08-25T23:31:47.662Z,6.95
2022-08-25T23:34:15.409Z,6.70
2022-08-25T23:36:44.877Z,6.97
2022-08-25T23:39:11.591Z,6.47
2022-08-25T23:41:38.702Z,6.70
2022-08-25T23:44:06.240Z,6.85
2022-08-25T23:46:36.348Z,6.72
2022-08-25T23:49:08.411Z,6.88
2022-08-25T23:51:38.085Z,7.13
2022-08-25T23:54:09.576Z,7.20
2022-08-25T23:56:42.276Z,6.88
2022-08-25T23:59:11.376Z,7.22
